Time;durP1;ratioP1;P1;durP2;ratioP2;P2;SDS_P1;SDS_P2;PMS_P1;PMS_P2;Temp;Humidity;BMP_temperature;BMP_pressure;BME280_temperature;BME280_humidity;BME280_pressure;Samples;Min_cycle;Max_cycle;Signal;HPM_P1;HPM_P2
2023/02/05 00:02:13;;;;;;;14.10;7.50;;;8.60;84.90;;;;;;5043302;28;20492;-75
2023/02/05 00:04:39;;;;;;;11.32;6.95;;;8.60;85.10;;;;;;5039620;28;20432;-76
2023/02/05 00:07:05;;;;;;;12.40;7.25;;;8.60;84.80;;;;;;5039065;28;20462;-76
2023/02/05 00:09:31;;;;;;;13.25;7.53;;;8.60;84.70;;;;;;5045504;28;20017;-76
2023/02/05 00:11:57;;;;;;;11.52;7.57;;;8.60;84.70;;;;;;5036827;28;20358;-74
2023/02/05 00:14:24;;;;;;;12.98;8.10;;;8.60;84.80;;;;;;5041833;28;20021;-75
2023/02/05 00:16:50;;;;;;;10.55;7.20;;;8.60;84.80;;;;;;5040709;28;20374;-75
2023/02/05 00:19:16;;;;;;;10.93;7.57;;;8.60;84.80;;;;;;5039844;28;20103;-75
2023/02/05 00:21:43;;;;;;;13.52;7.63;;;8.60;84.90;;;;;;5039114;28;20116;-75
2023/02/05 00:24:09;;;;;;;11.88;7.50;;;8.60;84.70;;;;;;5033526;28;20022;-75
2023/02/05 00:26:35;;;;;;;10.55;7.30;;;8.60;84.70;;;;;;5036381;28;20033;-75
2023/02/05 00:29:03;;;;;;;13.13;9.10;;;8.60;84.70;;;;;;5039418;28;20066;-75
2023/02/05 00:31:29;;;;;;;12.38;7.57;;;8.60;84.70;;;;;;5044141;28;20503;-77
2023/02/05 00:33:55;;;;;;;12.93;7.57;;;8.60;84.60;;;;;;5038805;28;20116;-75
2023/02/05 00:36:21;;;;;;;14.85;8.10;;;8.60;84.60;;;;;;5039011;28;20040;-75
2023/02/05 00:38:47;;;;;;;10.23;6.80;;;8.60;84.60;;;;;;5041127;28;20073;-76
2023/02/05 00:41:14;;;;;;;11.52;7.70;;;8.60;84.60;;;;;;5041017;28;20321;-75
2023/02/05 00:43:41;;;;;;;13.93;8.55;;;8.60;84.60;;;;;;5042174;28;20056;-75
2023/02/05 00:46:07;;;;;;;13.73;8.65;;;8.60;84.60;;;;;;5038125;28;20029;-75
2023/02/05 00:48:33;;;;;;;13.45;8.45;;;8.60;84.70;;;;;;5044971;28;20524;-75
2023/02/05 00:50:59;;;;;;;16.80;10.45;;;8.60;84.60;;;;;;5043092;28;20063;-75
2023/02/05 00:53:25;;;;;;;13.48;8.95;;;8.60;84.60;;;;;;5044105;28;20100;-74
2023/02/05 00:55:51;;;;;;;14.63;8.38;;;8.60;84.70;;;;;;5040320;28;20037;-76
2023/02/05 00:58:17;;;;;;;11.80;7.43;;;8.60;84.50;;;;;;5042821;28;20033;-75
2023/02/05 01:00:44;;;;;;;13.25;7.93;;;8.50;84.50;;;;;;5038608;28;20022;-74
2023/02/05 01:03:09;;;;;;;12.82;7.50;;;8.50;84.40;;;;;;5036259;28;20036;-75
2023/02/05 01:05:36;;;;;;;15.23;6.40;;;8.50;84.40;;;;;;5040190;28;20029;-75
2023/02/05 01:08:04;;;;;;;11.50;7.03;;;8.40;84.20;;;;;;5044699;28;20036;-75
2023/02/05 01:10:29;;;;;;;9.63;6.35;;;8.40;84.20;;;;;;5043571;28;20064;-75
2023/02/05 01:12:55;;;;;;;11.43;6.80;;;8.30;84.30;;;;;;5044614;28;20499;-74
2023/02/05 01:15:21;;;;;;;11.77;6.00;;;8.30;84.30;;;;;;5044735;28;20040;-74
2023/02/05 01:17:47;;;;;;;12.65;6.30;;;8.30;84.30;;;;;;5039400;28;20458;-74
2023/02/05 01:20:14;;;;;;;12.13;6.40;;;8.30;84.20;;;;;;5041790;28;20063;-75
2023/02/05 01:22:40;;;;;;;13.40;5.90;;;8.20;84.20;;;;;;5041360;28;20028;-75
2023/02/05 01:25:06;;;;;;;11.05;6.20;;;8.30;84.00;;;;;;5037105;28;20032;-75
2023/02/05 01:27:33;;;;;;;10.88;5.82;;;8.30;83.80;;;;;;5043439;28;20123;-75
2023/02/05 01:29:59;;;;;;;11.95;6.25;;;8.20;83.80;;;;;;5037882;28;20543;-75
2023/02/05 01:32:26;;;;;;;11.05;6.70;;;8.30;83.90;;;;;;5039071;28;20039;-75
2023/02/05 01:34:51;;;;;;;9.95;5.95;;;8.30;83.90;;;;;;5039366;28;20075;-75
2023/02/05 01:37:17;;;;;;;12.98;5.95;;;8.30;83.80;;;;;;5041261;28;20041;-76
2023/02/05 01:39:43;;;;;;;15.52;6.80;;;8.30;83.80;;;;;;5039857;28;20047;-74
2023/02/05 01:42:35;;;;;;;10.95;6.90;;;8.30;83.60;;;;;;5038329;28;20029;-74
2023/02/05 01:45:22;;;;;;;8.88;5.90;;;8.30;83.50;;;;;;5038204;28;20045;-76
2023/02/05 01:47:48;;;;;;;16.63;6.45;;;8.30;83.50;;;;;;5038288;28;20029;-75
2023/02/05 01:50:18;;;;;;;13.15;7.00;;;8.20;83.40;;;;;;5034815;28;20527;-74
2023/02/05 01:52:44;;;;;;;13.13;6.82;;;8.20;83.40;;;;;;5037298;28;20036;-75
2023/02/05 01:55:11;;;;;;;11.43;6.55;;;8.20;83.50;;;;;;5035768;28;20111;-74
2023/02/05 01:57:37;;;;;;;12.32;6.93;;;8.20;83.30;;;;;;5042446;28;20029;-74
2023/02/05 02:00:05;;;;;;;10.60;6.10;;;8.20;83.30;;;;;;5042842;28;20110;-76
2023/02/05 02:02:33;;;;;;;14.00;7.97;;;8.20;83.40;;;;;;5038463;28;20036;-75
2023/02/05 02:05:05;;;;;;;12.77;7.55;;;8.30;83.50;;;;;;5033943;28;20119;-75
2023/02/05 02:07:31;;;;;;;11.40;7.15;;;8.20;83.40;;;;;;5034414;28;20045;-75
2023/02/05 02:09:57;;;;;;;13.15;7.93;;;8.20;83.40;;;;;;5042790;28;20028;-75
2023/02/05 02:12:27;;;;;;;14.77;8.63;;;8.20;83.50;;;;;;5043325;28;20021;-75
2023/02/05 02:14:58;;;;;;;14.82;8.55;;;8.10;83.50;;;;;;5041698;28;20017;-75
2023/02/05 02:17:26;;;;;;;14.45;8.63;;;8.10;83.60;;;;;;5037260;28;20034;-75
2023/02/05 02:20:06;;;;;;;14.23;8.65;;;8.10;83.70;;;;;;5041796;28;20108;-76
2023/02/05 02:22:53;;;;;;;14.65;9.30;;;8.10;83.70;;;;;;5043229;28;20375;-76
2023/02/05 02:25:28;;;;;;;14.05;9.50;;;8.10;83.70;;;;;;5042426;28;20098;-75
2023/02/05 02:28:03;;;;;;;15.35;9.43;;;8.10;83.80;;;;;;5043841;28;20064;-75
2023/02/05 02:30:28;;;;;;;13.18;8.40;;;8.10;83.80;;;;;;5042976;28;20024;-76
2023/02/05 02:33:05;;;;;;;16.55;9.32;;;8.10;83.70;;;;;;5042681;28;20025;-76
2023/02/05 02:35:33;;;;;;;15.50;9.35;;;8.10;83.70;;;;;;5045142;28;20558;-77
2023/02/05 02:38:09;;;;;;;16.95;9.55;;;8.10;83.80;;;;;;5043748;28;20092;-75
2023/02/05 02:40:43;;;;;;;16.92;10.50;;;8.10;84.00;;;;;;5043994;28;20380;-75
2023/02/05 02:43:16;;;;;;;14.88;9.95;;;8.00;84.00;;;;;;5036847;28;20053;-74
2023/02/05 02:45:53;;;;;;;16.10;9.93;;;8.10;84.10;;;;;;5044246;28;20031;-75
2023/02/05 02:50:31;;;;;;;20.25;11.13;;;8.00;84.20;;;;;;5100982;27;20486;-75
2023/02/05 02:53:02;;;;;;;17.60;10.25;;;8.10;84.20;;;;;;5081501;28;20037;-75
2023/02/05 02:55:33;;;;;;;16.90;10.65;;;8.00;84.30;;;;;;5080544;28;20494;-75
2023/02/05 02:58:02;;;;;;;16.88;10.48;;;8.00;84.40;;;;;;5076093;28;20033;-76
2023/02/05 03:00:29;;;;;;;18.83;11.15;;;7.90;84.60;;;;;;5066618;28;20024;-76
2023/02/05 03:03:00;;;;;;;22.02;11.98;;;7.90;84.70;;;;;;5082584;28;20121;-76
2023/02/05 03:05:28;;;;;;;17.95;11.00;;;7.90;84.90;;;;;;5075107;28;20032;-76
2023/02/05 03:08:01;;;;;;;17.48;11.00;;;7.90;85.00;;;;;;5085399;28;20104;-76
2023/02/05 03:10:36;;;;;;;16.80;10.40;;;7.90;85.10;;;;;;5080496;28;20029;-76
2023/02/05 03:13:02;;;;;;;17.65;11.07;;;7.90;85.20;;;;;;5064307;28;20066;-75
2023/02/05 03:15:27;;;;;;;19.02;10.40;;;7.80;85.40;;;;;;5081493;28;20044;-75
2023/02/05 03:17:54;;;;;;;20.40;11.50;;;7.90;85.40;;;;;;5080381;28;20045;-75
2023/02/05 03:20:32;;;;;;;17.52;9.88;;;7.80;85.50;;;;;;5081307;28;20521;-75
2023/02/05 03:22:58;;;;;;;16.15;10.50;;;7.90;85.50;;;;;;5082028;28;20494;-76
2023/02/05 03:25:26;;;;;;;17.67;11.48;;;7.90;85.60;;;;;;5082450;28;20016;-76
2023/02/05 03:27:53;;;;;;;20.30;11.70;;;7.80;85.60;;;;;;5078286;28;20074;-76
2023/02/05 03:30:19;;;;;;;21.55;12.98;;;7.90;85.60;;;;;;5061208;28;20033;-75
2023/02/05 03:32:51;;;;;;;21.42;13.05;;;7.90;85.60;;;;;;5085583;28;20378;-75
2023/02/05 03:35:31;;;;;;;19.55;14.20;;;7.90;85.60;;;;;;5080482;28;20051;-75
2023/02/05 03:38:08;;;;;;;21.27;14.00;;;7.90;85.50;;;;;;5063418;28;20044;-75
2023/02/05 03:40:56;;;;;;;23.45;13.88;;;7.80;85.70;;;;;;5050265;28;20401;-75
2023/02/05 03:43:36;;;;;;;20.83;13.65;;;7.80;85.70;;;;;;5077654;28;20508;-76
2023/02/05 03:46:24;;;;;;;20.95;13.25;;;7.90;85.80;;;;;;5091976;28;20059;-75
2023/02/05 03:49:11;;;;;;;21.23;12.75;;;7.90;85.80;;;;;;5100510;28;20036;-74
2023/02/05 03:51:52;;;;;;;21.08;12.45;;;7.90;86.00;;;;;;5100681;28;20563;-76
2023/02/05 03:54:53;;;;;;;21.15;12.43;;;7.90;86.00;;;;;;5102331;28;20028;-75
2023/02/05 03:57:59;;;;;;;18.58;11.88;;;7.90;86.00;;;;;;5031577;28;20034;-75
2023/02/05 04:00:25;;;;;;;20.63;11.15;;;7.80;86.20;;;;;;5038025;28;20040;-75
2023/02/05 04:02:51;;;;;;;19.50;11.48;;;7.80;86.60;;;;;;5077870;28;20578;-74
2023/02/05 04:05:21;;;;;;;19.08;11.80;;;7.80;86.70;;;;;;5087178;28;20065;-76
2023/02/05 04:07:50;;;;;;;22.63;12.32;;;7.80;86.90;;;;;;5084609;28;20055;-76
2023/02/05 04:10:17;;;;;;;22.25;11.95;;;7.90;86.90;;;;;;5088516;28;20352;-76
2023/02/05 04:12:42;;;;;;;19.05;11.77;;;7.90;87.20;;;;;;5083895;28;20529;-76
2023/02/05 04:15:09;;;;;;;21.63;13.27;;;7.90;87.40;;;;;;5090231;28;20036;-76
2023/02/05 04:17:38;;;;;;;22.23;13.07;;;7.80;87.60;;;;;;5087810;28;20127;-76
2023/02/05 04:20:05;;;;;;;21.30;12.93;;;7.90;87.60;;;;;;5087259;28;20028;-77
2023/02/05 04:22:30;;;;;;;23.48;13.73;;;7.90;87.70;;;;;;5085870;28;20510;-75
2023/02/05 04:24:56;;;;;;;22.73;14.30;;;7.90;87.90;;;;;;5084707;28;20024;-77
2023/02/05 04:27:22;;;;;;;26.55;15.13;;;8.00;88.20;;;;;;5085743;28;20469;-76
2023/02/05 04:29:47;;;;;;;26.83;15.63;;;7.90;88.60;;;;;;5087127;28;20024;-76
2023/02/05 04:32:13;;;;;;;27.77;16.08;;;7.90;89.20;;;;;;5080364;28;20528;-76
2023/02/05 04:34:39;;;;;;;29.17;17.02;;;7.90;89.70;;;;;;5085530;28;20028;-75
2023/02/05 04:37:05;;;;;;;29.60;16.80;;;7.80;89.90;;;;;;5080042;28;20031;-75
2023/02/05 04:39:30;;;;;;;25.52;16.25;;;7.80;90.30;;;;;;5085679;28;20035;-74
2023/02/05 04:41:56;;;;;;;30.52;17.23;;;7.80;90.50;;;;;;5079925;28;20086;-76
2023/02/05 04:44:22;;;;;;;27.40;17.55;;;7.80;90.70;;;;;;5086744;28;20028;-74
2023/02/05 04:46:47;;;;;;;29.05;17.48;;;7.80;91.00;;;;;;5085389;28;20028;-76
2023/02/05 04:49:13;;;;;;;28.17;18.02;;;7.80;91.10;;;;;;5087392;28;20048;-75
2023/02/05 04:51:39;;;;;;;27.95;18.45;;;7.80;91.30;;;;;;5085690;28;20449;-74
2023/02/05 04:54:04;;;;;;;28.40;18.42;;;7.70;91.50;;;;;;5088497;28;20024;-74
2023/02/05 04:56:30;;;;;;;31.60;19.42;;;7.70;91.70;;;;;;5085177;28;20067;-74
2023/02/05 04:58:56;;;;;;;28.60;19.00;;;7.70;92.00;;;;;;5086163;28;20024;-75
2023/02/05 05:01:22;;;;;;;30.40;19.35;;;7.70;92.10;;;;;;5084109;28;20123;-75
2023/02/05 05:03:49;;;;;;;29.65;18.88;;;7.70;92.20;;;;;;5079042;28;20028;-75
2023/02/05 05:06:16;;;;;;;31.23;19.92;;;7.70;92.30;;;;;;5086975;28;20035;-76
2023/02/05 05:08:42;;;;;;;27.67;20.42;;;7.70;92.40;;;;;;5085223;28;20028;-77
2023/02/05 05:11:10;;;;;;;27.58;20.38;;;7.70;92.60;;;;;;5082884;28;20048;-75
2023/02/05 05:13:36;;;;;;;28.10;21.35;;;7.80;92.70;;;;;;5066771;28;20056;-75
2023/02/05 05:16:03;;;;;;;28.77;21.75;;;7.80;92.90;;;;;;5083001;28;20032;-76
2023/02/05 05:18:28;;;;;;;27.65;20.45;;;7.80;93.00;;;;;;5066544;28;20038;-75
2023/02/05 05:20:54;;;;;;;27.20;21.17;;;7.80;93.10;;;;;;5081300;28;20032;-76
2023/02/05 05:23:20;;;;;;;26.02;19.95;;;7.80;93.20;;;;;;5087144;28;20027;-75
2023/02/05 05:25:46;;;;;;;23.55;17.08;;;7.90;93.30;;;;;;5083388;28;20060;-75
2023/02/05 05:28:14;;;;;;;14.70;9.40;;;7.90;93.20;;;;;;5067391;28;20387;-76
2023/02/05 05:30:42;;;;;;;13.52;7.15;;;7.90;92.80;;;;;;5082974;28;20031;-75
2023/02/05 05:33:07;;;;;;;11.23;7.15;;;7.90;92.40;;;;;;5084030;28;20110;-75
2023/02/05 05:35:33;;;;;;;10.52;5.10;;;7.90;92.20;;;;;;5082966;28;20031;-76
2023/02/05 05:38:00;;;;;;;13.90;4.93;;;7.80;91.30;;;;;;5085246;28;20016;-75
2023/02/05 05:45:57;;;;;;;10.52;3.97;;;7.90;90.60;;;;;;5084221;28;20043;-75
2023/02/05 05:48:23;;;;;;;12.50;3.90;;;7.80;90.50;;;;;;5084914;28;20040;-75
2023/02/05 05:50:48;;;;;;;15.25;5.03;;;7.90;90.50;;;;;;5075015;28;20032;-76
2023/02/05 05:53:14;;;;;;;14.73;3.78;;;7.90;90.50;;;;;;5080784;28;20059;-76
2023/02/05 05:55:40;;;;;;;14.05;3.65;;;7.90;90.40;;;;;;5079348;28;20031;-76
2023/02/05 05:58:06;;;;;;;16.55;4.00;;;7.90;90.50;;;;;;5083502;28;20051;-76
2023/02/05 06:00:32;;;;;;;19.45;4.05;;;7.80;90.50;;;;;;5084305;28;20035;-75
2023/02/05 06:02:58;;;;;;;13.77;3.25;;;7.90;90.60;;;;;;5083514;28;20020;-76
2023/02/05 06:05:23;;;;;;;18.10;4.28;;;7.80;90.60;;;;;;5083528;28;20024;-75
2023/02/05 06:07:49;;;;;;;18.38;3.53;;;7.80;90.30;;;;;;5082939;28;20055;-76
2023/02/05 06:10:15;;;;;;;19.55;3.65;;;7.80;90.10;;;;;;5079187;28;20066;-76
2023/02/05 06:12:40;;;;;;;17.13;3.88;;;7.80;89.70;;;;;;5084983;28;20495;-75
2023/02/05 06:15:06;;;;;;;20.83;3.38;;;7.80;89.20;;;;;;5080615;28;20445;-76
2023/02/05 06:17:32;;;;;;;17.25;3.72;;;7.70;88.70;;;;;;5079897;28;20752;-75
2023/02/05 06:19:58;;;;;;;13.82;2.67;;;7.70;88.30;;;;;;5088491;28;20032;-76
2023/02/05 06:22:23;;;;;;;17.67;3.38;;;7.60;87.50;;;;;;5083157;28;20040;-75
2023/02/05 06:24:49;;;;;;;14.57;2.92;;;7.50;87.40;;;;;;5087198;28;20498;-75
2023/02/05 06:27:15;;;;;;;18.95;3.00;;;7.50;86.70;;;;;;5083554;28;20040;-77
2023/02/05 06:29:40;;;;;;;13.27;3.25;;;7.40;85.60;;;;;;5085711;28;20043;-76
2023/02/05 06:32:06;;;;;;;14.38;2.80;;;7.40;85.50;;;;;;5083203;28;20031;-76
2023/02/05 06:34:32;;;;;;;17.98;3.22;;;7.40;85.40;;;;;;5085032;28;20461;-76
2023/02/05 06:36:57;;;;;;;18.55;3.08;;;7.40;85.50;;;;;;5080649;28;20532;-74
2023/02/05 06:39:23;;;;;;;19.50;3.92;;;7.40;85.00;;;;;;5085073;28;20111;-74
2023/02/05 06:41:48;;;;;;;19.73;3.78;;;7.40;85.20;;;;;;5071178;28;20331;-74
2023/02/05 06:44:14;;;;;;;14.35;2.83;;;7.30;85.30;;;;;;5084582;28;20083;-75
2023/02/05 06:46:40;;;;;;;16.13;3.13;;;7.40;85.40;;;;;;5082636;28;20062;-74
2023/02/05 06:49:05;;;;;;;15.13;3.15;;;7.40;85.50;;;;;;5088021;28;20082;-75
2023/02/05 06:51:31;;;;;;;13.77;2.50;;;7.30;85.60;;;;;;5084873;28;20074;-76
2023/02/05 06:53:59;;;;;;;14.05;2.72;;;7.30;84.80;;;;;;5079817;28;20444;-75
2023/02/05 06:56:25;;;;;;;11.27;2.40;;;7.20;84.90;;;;;;5077536;28;20052;-75
2023/02/05 06:58:51;;;;;;;18.80;3.42;;;7.20;85.00;;;;;;5080349;28;20376;-75
2023/02/05 07:01:17;;;;;;;19.50;3.22;;;7.10;85.10;;;;;;5081037;28;20236;-77
2023/02/05 07:03:42;;;;;;;19.23;3.33;;;7.10;85.20;;;;;;5078782;28;20472;-76
2023/02/05 07:06:09;;;;;;;17.48;2.88;;;7.10;85.20;;;;;;5084044;28;20028;-75
2023/02/05 07:08:35;;;;;;;15.63;2.80;;;7.10;85.00;;;;;;5081842;28;20024;-75
2023/02/05 07:11:01;;;;;;;13.77;2.80;;;7.10;84.70;;;;;;5084929;28;20027;-75
2023/02/05 07:13:28;;;;;;;14.70;3.10;;;7.10;84.30;;;;;;5085834;28;20016;-76
2023/02/05 07:15:54;;;;;;;12.35;2.42;;;7.10;84.60;;;;;;5079003;28;20052;-76
2023/02/05 07:18:19;;;;;;;18.48;3.20;;;7.20;84.50;;;;;;5077414;28;20063;-76
2023/02/05 07:20:45;;;;;;;15.85;2.95;;;7.20;84.50;;;;;;5082547;28;20056;-76
2023/02/05 07:23:11;;;;;;;14.43;2.88;;;7.20;84.60;;;;;;5080816;28;20412;-76
2023/02/05 07:25:37;;;;;;;11.80;2.80;;;7.20;84.30;;;;;;5080561;28;21225;-75
2023/02/05 07:28:07;;;;;;;18.23;3.80;;;7.20;83.40;;;;;;5079937;28;20539;-76
2023/02/05 07:30:34;;;;;;;18.30;3.30;;;7.20;83.20;;;;;;5081221;28;20040;-75
2023/02/05 07:33:02;;;;;;;17.63;3.78;;;7.30;83.20;;;;;;5085300;28;20099;-74
2023/02/05 07:35:31;;;;;;;21.70;4.18;;;7.30;82.90;;;;;;5082485;28;20371;-76
2023/02/05 07:37:56;;;;;;;17.95;3.10;;;7.20;82.10;;;;;;5086949;28;20031;-74
2023/02/05 07:40:22;;;;;;;13.10;2.95;;;7.30;81.40;;;;;;5087015;28;20028;-76
2023/02/05 07:42:48;;;;;;;16.77;3.08;;;7.30;80.30;;;;;;5087424;28;20028;-74
2023/02/05 07:45:14;;;;;;;18.17;2.97;;;7.30;80.30;;;;;;5087519;28;20058;-74
2023/02/05 07:47:39;;;;;;;15.93;3.30;;;7.30;80.30;;;;;;5086858;28;20029;-75
2023/02/05 07:50:05;;;;;;;19.30;3.67;;;7.40;80.30;;;;;;5086602;28;20036;-74
2023/02/05 07:52:32;;;;;;;19.80;3.03;;;7.40;80.30;;;;;;5083178;28;20025;-75
2023/02/05 07:54:58;;;;;;;17.40;3.30;;;7.40;80.40;;;;;;5083028;28;20024;-75
2023/02/05 07:57:25;;;;;;;21.15;4.10;;;7.40;80.70;;;;;;5084641;28;20066;-76
2023/02/05 07:59:51;;;;;;;17.73;3.10;;;7.40;80.90;;;;;;5085465;28;20495;-75
2023/02/05 08:02:17;;;;;;;24.50;4.45;;;7.40;81.00;;;;;;5085826;28;20028;-75
2023/02/05 08:04:43;;;;;;;24.50;4.32;;;7.40;81.20;;;;;;5084391;28;20032;-76
2023/02/05 08:07:11;;;;;;;17.48;3.20;;;7.40;81.20;;;;;;5066570;28;20051;-76
2023/02/05 08:09:37;;;;;;;24.98;5.20;;;7.40;81.10;;;;;;5084613;28;20448;-76
2023/02/05 08:12:03;;;;;;;25.23;3.75;;;7.40;81.10;;;;;;5083268;28;20052;-76
2023/02/05 08:14:30;;;;;;;20.33;4.05;;;7.40;81.30;;;;;;5082007;28;20024;-76
2023/02/05 08:16:57;;;;;;;25.05;4.93;;;7.40;81.20;;;;;;5085015;28;20082;-76
2023/02/05 08:19:23;;;;;;;18.75;3.63;;;7.40;81.20;;;;;;5064822;28;20336;-76
2023/02/05 08:21:49;;;;;;;27.83;5.40;;;7.40;81.50;;;;;;5080940;28;20039;-75
2023/02/05 08:24:15;;;;;;;25.42;4.63;;;7.40;81.80;;;;;;5084728;28;20410;-75
2023/02/05 08:26:41;;;;;;;19.50;4.03;;;7.40;81.60;;;;;;5083243;28;20434;-76
2023/02/05 08:29:08;;;;;;;31.27;4.45;;;7.40;81.40;;;;;;5086954;28;20515;-74
2023/02/05 08:31:34;;;;;;;19.75;4.28;;;7.40;81.40;;;;;;5083703;28;20084;-75
2023/02/05 08:34:00;;;;;;;26.45;5.53;;;7.40;81.10;;;;;;5085579;28;20468;-75
2023/02/05 08:36:26;;;;;;;21.10;4.22;;;7.50;81.20;;;;;;5083925;28;20031;-76
2023/02/05 08:38:52;;;;;;;23.58;5.70;;;7.40;80.70;;;;;;5086285;28;20028;-75
2023/02/05 08:41:18;;;;;;;16.77;4.22;;;7.50;80.50;;;;;;5081461;28;20089;-75
2023/02/05 08:43:46;;;;;;;24.23;4.28;;;7.50;80.20;;;;;;5066667;28;20032;-76
2023/02/05 08:46:13;;;;;;;16.52;3.78;;;7.50;80.00;;;;;;5086431;28;20023;-75
2023/02/05 08:48:39;;;;;;;18.52;3.55;;;7.50;80.00;;;;;;5087154;28;20044;-77
2023/02/05 08:51:07;;;;;;;23.27;4.63;;;7.50;79.30;;;;;;5084370;28;20039;-75
2023/02/05 08:53:33;;;;;;;23.50;5.38;;;7.60;79.40;;;;;;5066407;28;20028;-76
2023/02/05 08:56:01;;;;;;;21.35;4.50;;;7.60;79.20;;;;;;5079224;28;20499;-75
2023/02/05 08:58:27;;;;;;;21.08;4.65;;;7.70;79.40;;;;;;5083235;28;20147;-73
2023/02/05 09:00:59;;;;;;;23.95;4.38;;;7.70;79.30;;;;;;5083393;28;20115;-74
2023/02/05 09:03:25;;;;;;;20.45;3.83;;;7.70;78.70;;;;;;5085159;28;20075;-73
2023/02/05 09:05:51;;;;;;;20.58;3.83;;;7.70;78.40;;;;;;5079596;28;20102;-73
2023/02/05 09:08:17;;;;;;;18.92;4.00;;;7.70;78.40;;;;;;5084969;28;20489;-74
2023/02/05 09:10:43;;;;;;;26.13;4.88;;;7.80;78.50;;;;;;5082917;28;20059;-76
2023/02/05 09:13:09;;;;;;;17.92;4.30;;;7.90;78.10;;;;;;5079289;28;20461;-74
2023/02/05 09:15:41;;;;;;;19.52;4.45;;;8.00;78.00;;;;;;5083598;28;20048;-74
2023/02/05 09:18:06;;;;;;;22.88;4.68;;;8.00;77.70;;;;;;5082263;28;20028;-75
2023/02/05 09:20:32;;;;;;;18.70;4.28;;;8.00;78.00;;;;;;5077157;28;20085;-74
2023/02/05 09:22:57;;;;;;;18.92;4.55;;;8.00;77.50;;;;;;5086831;28;20103;-75
2023/02/05 09:25:23;;;;;;;27.33;4.95;;;8.10;77.80;;;;;;5073035;28;20024;-75
2023/02/05 09:27:49;;;;;;;31.02;4.70;;;8.10;77.70;;;;;;5084288;28;20056;-74
2023/02/05 09:30:15;;;;;;;19.55;4.88;;;8.10;77.70;;;;;;5080626;28;20521;-79
2023/02/05 09:32:40;;;;;;;24.70;5.82;;;8.00;77.50;;;;;;5082870;28;20032;-78
2023/02/05 09:35:06;;;;;;;22.55;4.82;;;7.90;77.60;;;;;;5081560;28;20392;-74
2023/02/05 09:37:31;;;;;;;23.58;5.60;;;8.00;77.80;;;;;;5083455;28;20150;-73
2023/02/05 09:39:57;;;;;;;23.65;4.53;;;8.00;77.50;;;;;;5082917;28;20024;-74
2023/02/05 09:42:54;;;;;;;29.23;5.93;;;8.00;77.50;;;;;;5084084;28;20365;-75
2023/02/05 09:45:38;;;;;;;26.10;6.10;;;8.00;77.30;;;;;;5081748;28;20027;-75
2023/02/05 09:48:11;;;;;;;20.95;4.93;;;8.00;77.40;;;;;;5082725;28;20111;-74
2023/02/05 09:50:40;;;;;;;26.40;6.10;;;8.10;77.10;;;;;;5082520;28;20040;-78
2023/02/05 09:53:14;;;;;;;21.13;5.40;;;8.20;76.90;;;;;;5084263;28;20035;-74
2023/02/05 09:55:43;;;;;;;30.02;5.97;;;8.10;76.80;;;;;;5085580;28;20020;-77
2023/02/05 09:58:17;;;;;;;20.52;5.38;;;8.10;77.30;;;;;;5080165;28;20035;-73
2023/02/05 10:00:48;;;;;;;21.08;4.97;;;8.20;76.90;;;;;;5081165;28;20066;-75
2023/02/05 10:03:26;;;;;;;22.67;5.25;;;8.50;77.30;;;;;;5083335;28;20032;-73
2023/02/05 10:06:02;;;;;;;26.92;5.20;;;8.60;76.40;;;;;;5086031;28;20036;-74
2023/02/05 10:08:50;;;;;;;25.88;5.05;;;8.60;75.80;;;;;;5082724;28;20039;-73
2023/02/05 10:11:38;;;;;;;21.85;4.15;;;8.60;75.80;;;;;;5084659;28;20375;-75
2023/02/05 10:14:37;;;;;;;29.63;4.82;;;8.60;75.30;;;;;;5081822;28;20016;-74
2023/02/05 10:17:12;;;;;;;21.42;4.65;;;8.70;74.80;;;;;;5074638;28;20071;-73
2023/02/05 10:19:44;;;;;;;26.40;5.40;;;8.60;73.80;;;;;;5082469;28;20035;-74
2023/02/05 10:22:40;;;;;;;27.73;5.45;;;8.70;74.40;;;;;;5083381;28;20480;-76
2023/02/05 10:25:19;;;;;;;26.42;4.18;;;8.90;74.00;;;;;;5080531;28;20016;-75
2023/02/05 10:27:55;;;;;;;21.52;4.20;;;9.00;73.50;;;;;;5061247;28;20593;-76
2023/02/05 10:30:29;;;;;;;21.55;3.90;;;8.80;73.40;;;;;;5079261;28;20028;-75
2023/02/05 10:32:58;;;;;;;22.90;4.53;;;9.00;72.80;;;;;;5081389;28;20032;-74
2023/02/05 10:35:30;;;;;;;21.13;4.93;;;8.90;73.50;;;;;;5083017;28;20573;-79
2023/02/05 10:37:56;;;;;;;20.08;4.00;;;8.90;72.60;;;;;;5085032;28;20135;-74
2023/02/05 10:40:29;;;;;;;22.30;4.47;;;8.80;71.90;;;;;;5082263;28;20650;-76
2023/02/05 10:43:13;;;;;;;27.85;4.70;;;8.90;72.50;;;;;;5077405;28;20083;-73
2023/02/05 10:45:38;;;;;;;23.67;5.43;;;8.90;72.90;;;;;;5081844;28;20028;-74
2023/02/05 10:48:29;;;;;;;22.10;4.68;;;9.00;73.00;;;;;;5084678;28;20020;-74
2023/02/05 10:51:04;;;;;;;20.23;3.85;;;9.10;72.30;;;;;;5083925;28;20040;-73
2023/02/05 10:53:31;;;;;;;29.45;4.60;;;9.10;72.70;;;;;;5082192;28;20040;-74
2023/02/05 10:55:58;;;;;;;22.48;4.55;;;9.40;72.60;;;;;;5080343;28;20036;-75
2023/02/05 10:58:38;;;;;;;19.40;3.90;;;9.80;72.00;;;;;;5084172;28;20519;-78
2023/02/05 11:01:15;;;;;;;27.08;5.95;;;9.90;70.80;;;;;;5077031;28;20029;-74
2023/02/05 11:03:53;;;;;;;20.45;4.72;;;9.70;71.00;;;;;;5081049;28;20051;-74
2023/02/05 11:06:20;;;;;;;24.85;4.78;;;9.40;70.90;;;;;;5072474;28;20028;-74
2023/02/05 11:08:46;;;;;;;24.33;5.03;;;9.50;71.70;;;;;;5081058;28;20046;-74
2023/02/05 11:11:23;;;;;;;23.95;3.92;;;9.50;72.40;;;;;;5086216;28;20469;-73
2023/02/05 11:14:18;;;;;;;23.30;4.65;;;9.20;70.90;;;;;;5084198;28;20030;-74
2023/02/05 11:16:45;;;;;;;22.02;4.45;;;9.10;71.90;;;;;;5063439;28;20388;-74
2023/02/05 11:19:24;;;;;;;22.75;4.38;;;9.00;71.90;;;;;;5086761;28;20035;-75
2023/02/05 11:21:54;;;;;;;21.85;4.35;;;9.10;71.50;;;;;;5082093;28;20032;-76
2023/02/05 11:24:28;;;;;;;19.58;4.57;;;9.30;70.80;;;;;;5088340;28;20024;-77
2023/02/05 11:27:25;;;;;;;20.15;4.30;;;9.30;70.60;;;;;;5087219;28;20089;-79
2023/02/05 11:29:51;;;;;;;23.45;5.60;;;9.10;70.40;;;;;;5086123;28;20059;-76
2023/02/05 11:32:38;;;;;;;20.15;4.10;;;9.10;70.40;;;;;;5088013;28;20575;-78
2023/02/05 11:35:22;;;;;;;28.63;5.72;;;9.30;69.70;;;;;;5082383;28;20032;-75
2023/02/05 11:38:00;;;;;;;20.38;4.00;;;9.40;69.90;;;;;;5085166;28;20036;-76
2023/02/05 11:40:29;;;;;;;25.05;4.45;;;9.30;70.00;;;;;;5082683;28;20123;-78
2023/02/05 11:43:06;;;;;;;23.15;4.85;;;9.30;70.90;;;;;;5084755;28;20024;-76
2023/02/05 11:45:36;;;;;;;23.10;4.57;;;9.10;70.90;;;;;;5083007;28;20464;-74
2023/02/05 11:48:05;;;;;;;20.27;4.93;;;9.20;70.70;;;;;;5084091;28;20099;-76
2023/02/05 11:50:32;;;;;;;22.77;5.07;;;9.50;70.20;;;;;;5084561;28;20093;-75
2023/02/05 11:53:11;;;;;;;16.85;4.30;;;9.60;69.20;;;;;;5084069;28;20031;-75
2023/02/05 11:55:37;;;;;;;16.85;3.67;;;9.70;68.60;;;;;;5081783;28;20020;-74
2023/02/05 11:58:05;;;;;;;26.40;4.10;;;9.70;68.20;;;;;;5083639;28;20081;-73
2023/02/05 12:00:32;;;;;;;22.35;4.30;;;9.70;68.50;;;;;;5065170;28;20032;-74
2023/02/05 12:03:14;;;;;;;17.27;3.55;;;9.70;68.80;;;;;;5086578;28;20020;-75
2023/02/05 12:05:46;;;;;;;19.90;4.63;;;9.60;69.50;;;;;;5078744;28;20052;-75
2023/02/05 12:08:37;;;;;;;25.70;5.38;;;9.30;69.10;;;;;;5086437;28;20031;-74
2023/02/05 12:11:06;;;;;;;22.60;4.55;;;9.10;70.00;;;;;;5082417;28;20081;-74
2023/02/05 12:14:09;;;;;;;25.88;5.18;;;9.50;70.00;;;;;;5088214;28;20035;-75
2023/02/05 12:17:00;;;;;;;25.65;5.45;;;9.60;69.60;;;;;;5083679;28;20032;-73
2023/02/05 12:19:45;;;;;;;25.83;4.93;;;9.20;70.20;;;;;;5084122;28;20067;-80
2023/02/05 12:22:19;;;;;;;19.23;4.32;;;9.20;70.50;;;;;;5077807;28;20042;-75
2023/02/05 12:25:03;;;;;;;23.77;4.47;;;9.00;70.40;;;;;;5087328;28;20282;-74
2023/02/05 12:27:35;;;;;;;23.88;5.43;;;9.10;68.90;;;;;;5082229;28;20286;-76
2023/02/05 12:30:09;;;;;;;20.02;4.63;;;9.20;69.30;;;;;;5081036;28;20029;-75
2023/02/05 12:32:42;;;;;;;;;;;9.40;69.00;;;;;;5069079;28;20412;-73
2023/02/05 12:35:32;;;;;;;22.75;5.13;;;9.70;68.00;;;;;;5086019;28;19933;-74
2023/02/05 12:38:03;;;;;;;22.77;4.13;;;9.60;66.70;;;;;;5084880;28;20096;-73
2023/02/05 12:40:47;;;;;;;28.08;5.15;;;9.50;67.50;;;;;;5082718;28;20115;-73
2023/02/05 12:43:37;;;;;;;17.15;4.93;;;9.20;67.40;;;;;;5081979;28;20028;-77
2023/02/05 12:46:39;;;;;;;22.55;5.30;;;9.40;66.90;;;;;;5069681;28;20130;-80
2023/02/05 12:49:19;;;;;;;17.85;4.95;;;9.60;66.50;;;;;;5083815;28;20044;-74
2023/02/05 12:51:57;;;;;;;24.17;4.97;;;9.70;66.70;;;;;;5082607;28;20028;-75
2023/02/05 12:54:54;;;;;;;19.55;4.55;;;9.60;67.10;;;;;;5084625;28;20016;-73
2023/02/05 12:57:25;;;;;;;22.85;4.97;;;9.40;68.20;;;;;;5084355;28;20028;-75
2023/02/05 12:59:59;;;;;;;18.00;4.05;;;9.40;68.90;;;;;;5084294;28;20422;-74
2023/02/05 13:02:49;;;;;;;22.00;4.83;;;9.20;69.40;;;;;;5088199;28;20307;-73
2023/02/05 13:05:27;;;;;;;26.45;5.07;;;9.20;70.20;;;;;;5058813;28;20038;-73
2023/02/05 13:08:01;;;;;;;27.17;4.70;;;9.20;69.80;;;;;;5075555;28;20048;-77
2023/02/05 13:10:36;;;;;;;25.58;4.85;;;9.20;68.80;;;;;;5073774;28;20456;-75